sensor_id;sensor_type;location;lat;lon;timestamp;P1;durP1;ratioP1;P2;durP2;ratioP2
54919;SDS011;63804;53.120;8.764;2023-03-01T00:01:23;15.70;;;7.82;;
54919;SDS011;63804;53.120;8.764;2023-03-01T00:03:52;14.43;;;8.15;;
54919;SDS011;63804;53.120;8.764;2023-03-01T00:06:18;18.85;;;7.95;;
54919;SDS011;63804;53.120;8.764;2023-03-01T00:08:44;16.58;;;8.65;;
54919;SDS011;63804;53.120;8.764;2023-03-01T00:11:11;15.15;;;8.60;;
54919;SDS011;63804;53.120;8.764;2023-03-01T00:13:39;17.88;;;10.63;;
54919;SDS011;63804;53.120;8.764;2023-03-01T00:16:06;16.38;;;9.63;;
54919;SDS011;63804;53.120;8.764;2023-03-01T00:18:38;20.23;;;11.15;;
54919;SDS011;63804;53.120;8.764;2023-03-01T00:21:03;20.58;;;10.55;;
54919;SDS011;63804;53.120;8.764;2023-03-01T00:23:30;26.67;;;11.75;;
54919;SDS011;63804;53.120;8.764;2023-03-01T00:25:56;27.27;;;13.73;;
54919;SDS011;63804;53.120;8.764;2023-03-01T00:28:22;23.30;;;11.88;;
54919;SDS011;63804;53.120;8.764;2023-03-01T00:30:48;21.75;;;11.25;;
54919;SDS011;63804;53.120;8.764;2023-03-01T00:33:13;23.48;;;12.68;;
54919;SDS011;63804;53.120;8.764;2023-03-01T00:35:39;23.67;;;12.50;;
54919;SDS011;63804;53.120;8.764;2023-03-01T00:38:04;25.27;;;13.18;;
54919;SDS011;63804;53.120;8.764;2023-03-01T00:40:31;26.63;;;12.88;;
54919;SDS011;63804;53.120;8.764;2023-03-01T00:42:58;26.25;;;14.05;;
54919;SDS011;63804;53.120;8.764;2023-03-01T00:45:23;26.60;;;12.60;;
54919;SDS011;63804;53.120;8.764;2023-03-01T00:47:50;21.98;;;11.85;;
54919;SDS011;63804;53.120;8.764;2023-03-01T00:50:16;22.38;;;11.88;;
54919;SDS011;63804;53.120;8.764;2023-03-01T00:52:42;21.13;;;10.73;;
54919;SDS011;63804;53.120;8.764;2023-03-01T00:55:07;21.05;;;11.63;;
54919;SDS011;63804;53.120;8.764;2023-03-01T00:57:33;22.40;;;11.35;;
54919;SDS011;63804;53.120;8.764;2023-03-01T00:59:59;21.25;;;11.63;;
54919;SDS011;63804;53.120;8.764;2023-03-01T01:02:25;21.17;;;11.05;;
54919;SDS011;63804;53.120;8.764;2023-03-01T01:04:50;21.42;;;11.23;;
54919;SDS011;63804;53.120;8.764;2023-03-01T01:07:16;21.20;;;11.30;;
54919;SDS011;63804;53.120;8.764;2023-03-01T01:09:42;20.27;;;11.65;;
54919;SDS011;63804;53.120;8.764;2023-03-01T01:12:08;21.98;;;11.15;;
54919;SDS011;63804;53.120;8.764;2023-03-01T01:14:34;19.92;;;10.60;;
54919;SDS011;63804;53.120;8.764;2023-03-01T01:17:00;19.83;;;10.40;;
54919;SDS011;63804;53.120;8.764;2023-03-01T01:19:25;20.10;;;10.90;;
54919;SDS011;63804;53.120;8.764;2023-03-01T01:21:51;20.02;;;11.02;;
54919;SDS011;63804;53.120;8.764;2023-03-01T01:24:18;22.33;;;11.27;;
54919;SDS011;63804;53.120;8.764;2023-03-01T01:26:44;19.55;;;10.48;;
54919;SDS011;63804;53.120;8.764;2023-03-01T01:29:09;18.80;;;10.57;;
54919;SDS011;63804;53.120;8.764;2023-03-01T01:31:36;21.08;;;10.90;;
54919;SDS011;63804;53.120;8.764;2023-03-01T01:34:04;20.85;;;11.07;;
54919;SDS011;63804;53.120;8.764;2023-03-01T01:36:30;21.63;;;10.70;;
54919;SDS011;63804;53.120;8.764;2023-03-01T01:38:57;20.42;;;10.00;;
54919;SDS011;63804;53.120;8.764;2023-03-01T01:41:23;19.70;;;10.57;;
54919;SDS011;63804;53.120;8.764;2023-03-01T01:44:10;23.67;;;11.18;;
54919;SDS011;63804;53.120;8.764;2023-03-01T01:46:41;18.92;;;10.85;;
54919;SDS011;63804;53.120;8.764;2023-03-01T01:49:28;19.33;;;10.77;;
54919;SDS011;63804;53.120;8.764;2023-03-01T01:52:14;20.88;;;10.65;;
54919;SDS011;63804;53.120;8.764;2023-03-01T01:55:00;21.08;;;11.32;;
54919;SDS011;63804;53.120;8.764;2023-03-01T01:57:37;20.20;;;11.00;;
54919;SDS011;63804;53.120;8.764;2023-03-01T02:00:07;20.65;;;10.88;;
54919;SDS011;63804;53.120;8.764;2023-03-01T02:02:40;19.95;;;10.60;;
54919;SDS011;63804;53.120;8.764;2023-03-01T02:05:12;19.55;;;10.30;;
54919;SDS011;63804;53.120;8.764;2023-03-01T02:07:45;23.20;;;10.45;;
54919;SDS011;63804;53.120;8.764;2023-03-01T02:10:12;17.65;;;10.10;;
54919;SDS011;63804;53.120;8.764;2023-03-01T02:12:38;20.88;;;10.65;;
54919;SDS011;63804;53.120;8.764;2023-03-01T02:15:05;17.75;;;9.90;;
54919;SDS011;63804;53.120;8.764;2023-03-01T02:17:30;19.38;;;10.48;;
54919;SDS011;63804;53.120;8.764;2023-03-01T02:20:15;20.38;;;9.85;;
54919;SDS011;63804;53.120;8.764;2023-03-01T02:22:47;15.30;;;8.73;;
54919;SDS011;63804;53.120;8.764;2023-03-01T02:27:53;15.65;;;8.65;;
54919;SDS011;63804;53.120;8.764;2023-03-01T02:30:21;16.35;;;9.07;;
54919;SDS011;63804;53.120;8.764;2023-03-01T02:32:48;16.00;;;9.10;;
54919;SDS011;63804;53.120;8.764;2023-03-01T02:35:17;19.20;;;9.50;;
54919;SDS011;63804;53.120;8.764;2023-03-01T02:37:44;18.17;;;9.35;;
54919;SDS011;63804;53.120;8.764;2023-03-01T02:40:17;19.25;;;9.85;;
54919;SDS011;63804;53.120;8.764;2023-03-01T02:42:46;17.00;;;9.50;;
54919;SDS011;63804;53.120;8.764;2023-03-01T02:45:18;17.55;;;9.00;;
54919;SDS011;63804;53.120;8.764;2023-03-01T02:47:44;16.75;;;8.95;;
54919;SDS011;63804;53.120;8.764;2023-03-01T02:55:34;16.15;;;9.00;;
54919;SDS011;63804;53.120;8.764;2023-03-01T02:57:59;15.27;;;9.55;;
54919;SDS011;63804;53.120;8.764;2023-03-01T03:00:37;21.77;;;9.70;;
54919;SDS011;63804;53.120;8.764;2023-03-01T03:03:15;16.98;;;9.50;;
54919;SDS011;63804;53.120;8.764;2023-03-01T03:05:42;19.05;;;10.15;;
54919;SDS011;63804;53.120;8.764;2023-03-01T03:08:08;18.95;;;9.45;;
54919;SDS011;63804;53.120;8.764;2023-03-01T03:10:35;17.13;;;9.60;;
54919;SDS011;63804;53.120;8.764;2023-03-01T03:13:04;16.55;;;9.40;;
54919;SDS011;63804;53.120;8.764;2023-03-01T03:15:34;19.60;;;9.68;;
54919;SDS011;63804;53.120;8.764;2023-03-01T03:18:05;19.25;;;10.32;;
54919;SDS011;63804;53.120;8.764;2023-03-01T03:20:32;17.95;;;10.25;;
54919;SDS011;63804;53.120;8.764;2023-03-01T03:22:58;20.38;;;10.52;;
54919;SDS011;63804;53.120;8.764;2023-03-01T03:25:25;16.95;;;9.18;;
54919;SDS011;63804;53.120;8.764;2023-03-01T03:27:52;18.75;;;9.57;;
54919;SDS011;63804;53.120;8.764;2023-03-01T03:30:28;15.88;;;9.65;;
54919;SDS011;63804;53.120;8.764;2023-03-01T03:32:56;16.55;;;9.85;;
54919;SDS011;63804;53.120;8.764;2023-03-01T03:35:24;18.35;;;10.20;;
54919;SDS011;63804;53.120;8.764;2023-03-01T03:37:55;17.10;;;9.20;;
54919;SDS011;63804;53.120;8.764;2023-03-01T03:40:40;19.70;;;9.73;;
54919;SDS011;63804;53.120;8.764;2023-03-01T03:43:11;16.70;;;9.65;;
54919;SDS011;63804;53.120;8.764;2023-03-01T03:45:38;17.35;;;10.48;;
54919;SDS011;63804;53.120;8.764;2023-03-01T03:48:05;17.60;;;10.43;;
54919;SDS011;63804;53.120;8.764;2023-03-01T03:50:39;16.13;;;9.55;;
54919;SDS011;63804;53.120;8.764;2023-03-01T03:53:06;18.17;;;9.55;;
54919;SDS011;63804;53.120;8.764;2023-03-01T03:55:34;17.52;;;9.90;;
54919;SDS011;63804;53.120;8.764;2023-03-01T03:58:02;17.70;;;10.57;;
54919;SDS011;63804;53.120;8.764;2023-03-01T04:00:32;17.58;;;9.93;;
54919;SDS011;63804;53.120;8.764;2023-03-01T04:03:02;19.55;;;11.02;;
54919;SDS011;63804;53.120;8.764;2023-03-01T04:05:28;18.98;;;10.18;;
54919;SDS011;63804;53.120;8.764;2023-03-01T04:07:54;19.75;;;11.30;;
54919;SDS011;63804;53.120;8.764;2023-03-01T04:10:36;18.27;;;11.02;;
54919;SDS011;63804;53.120;8.764;2023-03-01T04:13:03;17.00;;;10.65;;
54919;SDS011;63804;53.120;8.764;2023-03-01T04:15:29;16.92;;;10.27;;
54919;SDS011;63804;53.120;8.764;2023-03-01T04:17:57;18.17;;;10.50;;
54919;SDS011;63804;53.120;8.764;2023-03-01T04:20:25;20.35;;;11.10;;
54919;SDS011;63804;53.120;8.764;2023-03-01T04:22:57;20.50;;;11.32;;
54919;SDS011;63804;53.120;8.764;2023-03-01T04:25:23;21.48;;;12.18;;
54919;SDS011;63804;53.120;8.764;2023-03-01T04:27:48;20.55;;;11.20;;
54919;SDS011;63804;53.120;8.764;2023-03-01T04:30:14;18.00;;;11.05;;
54919;SDS011;63804;53.120;8.764;2023-03-01T04:32:40;18.05;;;11.25;;
54919;SDS011;63804;53.120;8.764;2023-03-01T04:35:06;20.25;;;11.35;;
54919;SDS011;63804;53.120;8.764;2023-03-01T04:37:31;21.55;;;11.93;;
54919;SDS011;63804;53.120;8.764;2023-03-01T04:39:57;22.02;;;11.45;;
54919;SDS011;63804;53.120;8.764;2023-03-01T04:42:22;21.40;;;12.98;;
54919;SDS011;63804;53.120;8.764;2023-03-01T04:44:48;22.40;;;13.63;;
54919;SDS011;63804;53.120;8.764;2023-03-01T04:47:16;22.67;;;12.38;;
54919;SDS011;63804;53.120;8.764;2023-03-01T04:49:42;23.50;;;14.15;;
54919;SDS011;63804;53.120;8.764;2023-03-01T04:52:07;23.00;;;13.35;;
54919;SDS011;63804;53.120;8.764;2023-03-01T04:54:34;23.13;;;14.05;;
54919;SDS011;63804;53.120;8.764;2023-03-01T04:57:01;24.48;;;13.63;;
54919;SDS011;63804;53.120;8.764;2023-03-01T04:59:27;25.05;;;15.02;;
54919;SDS011;63804;53.120;8.764;2023-03-01T05:01:54;24.23;;;13.93;;
54919;SDS011;63804;53.120;8.764;2023-03-01T05:04:25;23.98;;;14.15;;
54919;SDS011;63804;53.120;8.764;2023-03-01T05:06:50;22.73;;;13.45;;
54919;SDS011;63804;53.120;8.764;2023-03-01T05:09:18;25.27;;;15.13;;
54919;SDS011;63804;53.120;8.764;2023-03-01T05:11:43;22.67;;;13.50;;
54919;SDS011;63804;53.120;8.764;2023-03-01T05:14:09;26.55;;;16.20;;
54919;SDS011;63804;53.120;8.764;2023-03-01T05:16:35;31.35;;;16.90;;
54919;SDS011;63804;53.120;8.764;2023-03-01T05:19:02;30.58;;;17.98;;
54919;SDS011;63804;53.120;8.764;2023-03-01T05:21:39;29.77;;;17.55;;
54919;SDS011;63804;53.120;8.764;2023-03-01T05:24:25;32.28;;;18.13;;
54919;SDS011;63804;53.120;8.764;2023-03-01T05:26:50;32.78;;;21.38;;
54919;SDS011;63804;53.120;8.764;2023-03-01T05:29:17;40.08;;;23.38;;
54919;SDS011;63804;53.120;8.764;2023-03-01T05:31:59;35.35;;;22.48;;
54919;SDS011;63804;53.120;8.764;2023-03-01T05:34:29;38.80;;;22.60;;
54919;SDS011;63804;53.120;8.764;2023-03-01T05:36:57;38.10;;;23.92;;
54919;SDS011;63804;53.120;8.764;2023-03-01T05:39:24;40.70;;;23.27;;
54919;SDS011;63804;53.120;8.764;2023-03-01T05:41:58;38.00;;;24.80;;
54919;SDS011;63804;53.120;8.764;2023-03-01T05:44:26;38.08;;;23.48;;
54919;SDS011;63804;53.120;8.764;2023-03-01T05:46:53;37.35;;;22.45;;
54919;SDS011;63804;53.120;8.764;2023-03-01T05:49:20;36.80;;;22.70;;
54919;SDS011;63804;53.120;8.764;2023-03-01T05:51:49;38.45;;;22.38;;
54919;SDS011;63804;53.120;8.764;2023-03-01T05:54:17;38.33;;;23.45;;
54919;SDS011;63804;53.120;8.764;2023-03-01T05:56:43;38.53;;;23.15;;
54919;SDS011;63804;53.120;8.764;2023-03-01T05:59:09;41.25;;;23.27;;
54919;SDS011;63804;53.120;8.764;2023-03-01T06:01:34;39.28;;;23.92;;
54919;SDS011;63804;53.120;8.764;2023-03-01T06:04:01;39.20;;;23.23;;
54919;SDS011;63804;53.120;8.764;2023-03-01T06:06:27;40.33;;;24.30;;
54919;SDS011;63804;53.120;8.764;2023-03-01T06:08:53;38.63;;;23.42;;
54919;SDS011;63804;53.120;8.764;2023-03-01T06:11:19;36.72;;;22.52;;
54919;SDS011;63804;53.120;8.764;2023-03-01T06:13:45;37.47;;;22.52;;
54919;SDS011;63804;53.120;8.764;2023-03-01T06:16:12;34.28;;;21.77;;
54919;SDS011;63804;53.120;8.764;2023-03-01T06:18:38;37.45;;;22.75;;
54919;SDS011;63804;53.120;8.764;2023-03-01T06:21:04;46.78;;;29.48;;
54919;SDS011;63804;53.120;8.764;2023-03-01T06:23:31;39.20;;;25.50;;
54919;SDS011;63804;53.120;8.764;2023-03-01T06:25:57;42.80;;;27.23;;
54919;SDS011;63804;53.120;8.764;2023-03-01T06:28:22;42.05;;;24.73;;
54919;SDS011;63804;53.120;8.764;2023-03-01T06:30:48;33.30;;;19.70;;
54919;SDS011;63804;53.120;8.764;2023-03-01T06:33:15;29.77;;;17.02;;
54919;SDS011;63804;53.120;8.764;2023-03-01T06:35:40;33.65;;;17.58;;
54919;SDS011;63804;53.120;8.764;2023-03-01T06:38:06;30.83;;;18.08;;
54919;SDS011;63804;53.120;8.764;2023-03-01T06:40:32;28.55;;;16.52;;
54919;SDS011;63804;53.120;8.764;2023-03-01T06:43:00;30.35;;;18.25;;
54919;SDS011;63804;53.120;8.764;2023-03-01T06:45:26;33.63;;;18.55;;
54919;SDS011;63804;53.120;8.764;2023-03-01T06:47:51;28.88;;;17.50;;
54919;SDS011;63804;53.120;8.764;2023-03-01T06:50:17;27.05;;;17.40;;
54919;SDS011;63804;53.120;8.764;2023-03-01T06:52:43;29.25;;;17.15;;
54919;SDS011;63804;53.120;8.764;2023-03-01T06:55:10;28.48;;;17.23;;
54919;SDS011;63804;53.120;8.764;2023-03-01T06:57:36;28.30;;;16.75;;
54919;SDS011;63804;53.120;8.764;2023-03-01T07:00:05;30.85;;;15.95;;
54919;SDS011;63804;53.120;8.764;2023-03-01T07:02:32;25.05;;;15.48;;
54919;SDS011;63804;53.120;8.764;2023-03-01T07:04:57;27.80;;;16.25;;
54919;SDS011;63804;53.120;8.764;2023-03-01T07:07:22;29.17;;;14.98;;
54919;SDS011;63804;53.120;8.764;2023-03-01T07:09:48;23.95;;;14.45;;
54919;SDS011;63804;53.120;8.764;2023-03-01T07:12:14;27.38;;;14.82;;
54919;SDS011;63804;53.120;8.764;2023-03-01T07:14:40;23.80;;;14.32;;
54919;SDS011;63804;53.120;8.764;2023-03-01T07:17:06;31.58;;;18.52;;
54919;SDS011;63804;53.120;8.764;2023-03-01T07:19:32;32.03;;;18.63;;
54919;SDS011;63804;53.120;8.764;2023-03-01T07:21:57;32.17;;;17.92;;
54919;SDS011;63804;53.120;8.764;2023-03-01T07:24:23;25.27;;;13.55;;
54919;SDS011;63804;53.120;8.764;2023-03-01T07:26:49;25.00;;;14.00;;
54919;SDS011;63804;53.120;8.764;2023-03-01T07:29:15;25.52;;;14.48;;
54919;SDS011;63804;53.120;8.764;2023-03-01T07:31:41;29.42;;;16.27;;
54919;SDS011;63804;53.120;8.764;2023-03-01T07:34:06;25.42;;;16.13;;
54919;SDS011;63804;53.120;8.764;2023-03-01T07:36:32;25.58;;;15.00;;
54919;SDS011;63804;53.120;8.764;2023-03-01T07:38:57;25.20;;;13.60;;
54919;SDS011;63804;53.120;8.764;2023-03-01T07:41:23;23.52;;;13.32;;
54919;SDS011;63804;53.120;8.764;2023-03-01T07:43:48;20.63;;;12.10;;
54919;SDS011;63804;53.120;8.764;2023-03-01T07:46:14;22.92;;;12.88;;
54919;SDS011;63804;53.120;8.764;2023-03-01T07:48:39;24.75;;;12.20;;
54919;SDS011;63804;53.120;8.764;2023-03-01T07:51:05;19.17;;;10.93;;
54919;SDS011;63804;53.120;8.764;2023-03-01T07:53:32;17.73;;;10.82;;
54919;SDS011;63804;53.120;8.764;2023-03-01T07:56:06;23.48;;;11.70;;
54919;SDS011;63804;53.120;8.764;2023-03-01T07:58:34;18.67;;;10.52;;
54919;SDS011;63804;53.120;8.764;2023-03-01T08:01:01;21.83;;;10.55;;
54919;SDS011;63804;53.120;8.764;2023-03-01T08:03:27;17.90;;;10.82;;
54919;SDS011;63804;53.120;8.764;2023-03-01T08:05:53;18.30;;;10.63;;
54919;SDS011;63804;53.120;8.764;2023-03-01T08:08:18;19.27;;;11.43;;
54919;SDS011;63804;53.120;8.764;2023-03-01T08:10:44;19.77;;;10.63;;
54919;SDS011;63804;53.120;8.764;2023-03-01T08:13:15;19.33;;;11.25;;
54919;SDS011;63804;53.120;8.764;2023-03-01T08:15:41;16.73;;;10.60;;
54919;SDS011;63804;53.120;8.764;2023-03-01T08:18:06;19.75;;;10.90;;
54919;SDS011;63804;53.120;8.764;2023-03-01T08:20:32;18.08;;;11.52;;
54919;SDS011;63804;53.120;8.764;2023-03-01T08:22:57;20.13;;;11.23;;
54919;SDS011;63804;53.120;8.764;2023-03-01T08:25:23;20.73;;;12.00;;
54919;SDS011;63804;53.120;8.764;2023-03-01T08:27:48;19.33;;;12.00;;
54919;SDS011;63804;53.120;8.764;2023-03-01T08:30:14;19.67;;;12.02;;
54919;SDS011;63804;53.120;8.764;2023-03-01T08:32:40;21.17;;;11.68;;
54919;SDS011;63804;53.120;8.764;2023-03-01T08:35:05;18.70;;;11.85;;
54919;SDS011;63804;53.120;8.764;2023-03-01T08:37:31;19.40;;;11.88;;
54919;SDS011;63804;53.120;8.764;2023-03-01T08:39:59;20.40;;;11.85;;
54919;SDS011;63804;53.120;8.764;2023-03-01T08:42:25;21.08;;;11.30;;
54919;SDS011;63804;53.120;8.764;2023-03-01T08:44:51;18.52;;;11.60;;
54919;SDS011;63804;53.120;8.764;2023-03-01T08:47:16;19.52;;;11.60;;
54919;SDS011;63804;53.120;8.764;2023-03-01T08:49:42;20.08;;;10.90;;
54919;SDS011;63804;53.120;8.764;2023-03-01T08:52:07;18.35;;;11.60;;
54919;SDS011;63804;53.120;8.764;2023-03-01T08:54:33;17.13;;;10.82;;
54919;SDS011;63804;53.120;8.764;2023-03-01T08:57:00;19.63;;;11.90;;
54919;SDS011;63804;53.120;8.764;2023-03-01T08:59:26;19.98;;;10.95;;
54919;SDS011;63804;53.120;8.764;2023-03-01T09:01:54;24.10;;;12.43;;
54919;SDS011;63804;53.120;8.764;2023-03-01T09:04:19;22.25;;;12.07;;
54919;SDS011;63804;53.120;8.764;2023-03-01T09:06:45;20.40;;;12.13;;
54919;SDS011;63804;53.120;8.764;2023-03-01T09:09:12;22.80;;;13.77;;
54919;SDS011;63804;53.120;8.764;2023-03-01T09:11:40;21.42;;;11.88;;
54919;SDS011;63804;53.120;8.764;2023-03-01T09:14:05;21.70;;;13.13;;
54919;SDS011;63804;53.120;8.764;2023-03-01T09:16:31;18.17;;;11.75;;
54919;SDS011;63804;53.120;8.764;2023-03-01T09:19:01;19.20;;;11.20;;
54919;SDS011;63804;53.120;8.764;2023-03-01T09:21:28;22.42;;;10.70;;
54919;SDS011;63804;53.120;8.764;2023-03-01T09:23:55;16.40;;;9.77;;
54919;SDS011;63804;53.120;8.764;2023-03-01T09:26:22;18.30;;;9.93;;
54919;SDS011;63804;53.120;8.764;2023-03-01T09:28:49;16.08;;;8.75;;
54919;SDS011;63804;53.120;8.764;2023-03-01T09:31:25;15.13;;;8.45;;
54919;SDS011;63804;53.120;8.764;2023-03-01T09:33:51;15.20;;;8.38;;
54919;SDS011;63804;53.120;8.764;2023-03-01T09:36:19;18.52;;;8.60;;
54919;SDS011;63804;53.120;8.764;2023-03-01T09:38:47;12.75;;;7.40;;
54919;SDS011;63804;53.120;8.764;2023-03-01T09:43:49;12.57;;;6.45;;
54919;SDS011;63804;53.120;8.764;2023-03-01T09:46:22;12.95;;;7.32;;
54919;SDS011;63804;53.120;8.764;2023-03-01T09:48:56;10.38;;;6.05;;
54919;SDS011;63804;53.120;8.764;2023-03-01T09:51:31;11.38;;;5.50;;
54919;SDS011;63804;53.120;8.764;2023-03-01T09:54:01;11.05;;;5.90;;
54919;SDS011;63804;53.120;8.764;2023-03-01T09:56:38;10.85;;;5.80;;
54919;SDS011;63804;53.120;8.764;2023-03-01T10:01:38;9.32;;;4.50;;
54919;SDS011;63804;53.120;8.764;2023-03-01T10:06:51;11.63;;;5.00;;
54919;SDS011;63804;53.120;8.764;2023-03-01T10:09:21;10.98;;;4.93;;
54919;SDS011;63804;53.120;8.764;2023-03-01T10:11:51;9.50;;;4.40;;
54919;SDS011;63804;53.120;8.764;2023-03-01T10:17:09;8.52;;;3.60;;
54919;SDS011;63804;53.120;8.764;2023-03-01T10:19:43;8.32;;;4.10;;
54919;SDS011;63804;53.120;8.764;2023-03-01T10:24:46;12.00;;;4.25;;
54919;SDS011;63804;53.120;8.764;2023-03-01T10:27:17;9.20;;;4.25;;
54919;SDS011;63804;53.120;8.764;2023-03-01T10:32:20;10.70;;;5.45;;
54919;SDS011;63804;53.120;8.764;2023-03-01T10:34:47;10.90;;;5.47;;
54919;SDS011;63804;53.120;8.764;2023-03-01T10:42:38;12.27;;;6.43;;
54919;SDS011;63804;53.120;8.764;2023-03-01T10:47:42;11.88;;;6.80;;
54919;SDS011;63804;53.120;8.764;2023-03-01T10:50:17;15.00;;;7.68;;
54919;SDS011;63804;53.120;8.764;2023-03-01T10:52:55;13.15;;;7.40;;
54919;SDS011;63804;53.120;8.764;2023-03-01T10:55:36;14.05;;;7.82;;
54919;SDS011;63804;53.120;8.764;2023-03-01T10:58:20;14.18;;;8.07;;
54919;SDS011;63804;53.120;8.764;2023-03-01T11:00:49;15.80;;;8.33;;
54919;SDS011;63804;53.120;8.764;2023-03-01T11:03:21;15.25;;;8.38;;
54919;SDS011;63804;53.120;8.764;2023-03-01T11:06:00;14.25;;;8.45;;
54919;SDS011;63804;53.120;8.764;2023-03-01T11:11:05;14.68;;;8.57;;
54919;SDS011;63804;53.120;8.764;2023-03-01T11:13:30;17.30;;;9.93;;
54919;SDS011;63804;53.120;8.764;2023-03-01T11:16:03;13.90;;;8.95;;
54919;SDS011;63804;53.120;8.764;2023-03-01T11:18:32;14.32;;;8.93;;
54919;SDS011;63804;53.120;8.764;2023-03-01T11:20:58;13.98;;;8.50;;
54919;SDS011;63804;53.120;8.764;2023-03-01T11:23:27;16.77;;;9.50;;
54919;SDS011;63804;53.120;8.764;2023-03-01T11:25:59;16.40;;;9.50;;
54919;SDS011;63804;53.120;8.764;2023-03-01T11:28:29;16.25;;;9.95;;
54919;SDS011;63804;53.120;8.764;2023-03-01T11:31:08;15.77;;;10.02;;
54919;SDS011;63804;53.120;8.764;2023-03-01T11:33:50;16.17;;;10.40;;
54919;SDS011;63804;53.120;8.764;2023-03-01T11:36:28;16.23;;;10.90;;
54919;SDS011;63804;53.120;8.764;2023-03-01T11:38:57;16.08;;;10.68;;
54919;SDS011;63804;53.120;8.764;2023-03-01T11:41:30;17.52;;;11.00;;
54919;SDS011;63804;53.120;8.764;2023-03-01T11:44:20;16.75;;;10.70;;
54919;SDS011;63804;53.120;8.764;2023-03-01T12:00:57;17.13;;;11.00;;
54919;SDS011;63804;53.120;8.764;2023-03-01T12:03:47;15.95;;;10.65;;
54919;SDS011;63804;53.120;8.764;2023-03-01T12:09:00;17.70;;;11.40;;
54919;SDS011;63804;53.120;8.764;2023-03-01T12:11:35;16.48;;;11.02;;
54919;SDS011;63804;53.120;8.764;2023-03-01T12:25:14;17.38;;;11.30;;
54919;SDS011;63804;53.120;8.764;2023-03-01T12:33:00;17.45;;;11.43;;
54919;SDS011;63804;53.120;8.764;2023-03-01T12:38:33;16.00;;;9.68;;
54919;SDS011;63804;53.120;8.764;2023-03-01T12:49:20;16.08;;;9.73;;
54919;SDS011;63804;53.120;8.764;2023-03-01T12:51:51;16.58;;;10.30;;
54919;SDS011;63804;53.120;8.764;2023-03-01T12:54:26;15.73;;;9.95;;
54919;SDS011;63804;53.120;8.764;2023-03-01T12:57:02;17.02;;;10.52;;
54919;SDS011;63804;53.120;8.764;2023-03-01T12:59:39;17.02;;;10.35;;
54919;SDS011;63804;53.120;8.764;2023-03-01T13:02:35;17.25;;;10.40;;
54919;SDS011;63804;53.120;8.764;2023-03-01T13:05:19;16.90;;;10.18;;
54919;SDS011;63804;53.120;8.764;2023-03-01T13:10:29;17.05;;;11.13;;
54919;SDS011;63804;53.120;8.764;2023-03-01T13:15:41;20.27;;;11.55;;
54919;SDS011;63804;53.120;8.764;2023-03-01T13:23:09;17.17;;;11.60;;
54919;SDS011;63804;53.120;8.764;2023-03-01T13:25:59;17.25;;;11.70;;
54919;SDS011;63804;53.120;8.764;2023-03-01T13:28:37;18.38;;;11.93;;
54919;SDS011;63804;53.120;8.764;2023-03-01T13:31:09;18.13;;;11.65;;
54919;SDS011;63804;53.120;8.764;2023-03-01T13:33:56;18.90;;;12.82;;
54919;SDS011;63804;53.120;8.764;2023-03-01T13:39:02;19.73;;;11.57;;
54919;SDS011;63804;53.120;8.764;2023-03-01T13:46:49;18.27;;;11.75;;
54919;SDS011;63804;53.120;8.764;2023-03-01T13:49:17;18.05;;;12.15;;
54919;SDS011;63804;53.120;8.764;2023-03-01T13:51:46;19.42;;;12.65;;
54919;SDS011;63804;53.120;8.764;2023-03-01T13:54:14;18.40;;;12.13;;
54919;SDS011;63804;53.120;8.764;2023-03-01T13:56:41;19.88;;;12.43;;
54919;SDS011;63804;53.120;8.764;2023-03-01T13:59:15;19.17;;;12.57;;
54919;SDS011;63804;53.120;8.764;2023-03-01T14:01:43;19.35;;;11.77;;
54919;SDS011;63804;53.120;8.764;2023-03-01T14:07:11;18.58;;;11.88;;
54919;SDS011;63804;53.120;8.764;2023-03-01T14:09:42;19.35;;;12.02;;
54919;SDS011;63804;53.120;8.764;2023-03-01T14:14:40;18.25;;;12.57;;
54919;SDS011;63804;53.120;8.764;2023-03-01T14:19:45;19.98;;;13.07;;
54919;SDS011;63804;53.120;8.764;2023-03-01T14:22:16;18.95;;;11.63;;
54919;SDS011;63804;53.120;8.764;2023-03-01T14:24:49;17.98;;;12.15;;
54919;SDS011;63804;53.120;8.764;2023-03-01T14:27:17;18.83;;;11.70;;
54919;SDS011;63804;53.120;8.764;2023-03-01T14:29:43;17.67;;;12.30;;
54919;SDS011;63804;53.120;8.764;2023-03-01T14:32:28;18.52;;;12.65;;
54919;SDS011;63804;53.120;8.764;2023-03-01T14:34:56;22.05;;;12.88;;
54919;SDS011;63804;53.120;8.764;2023-03-01T14:37:27;20.05;;;12.52;;
54919;SDS011;63804;53.120;8.764;2023-03-01T14:39:56;19.90;;;12.48;;
54919;SDS011;63804;53.120;8.764;2023-03-01T14:42:23;18.35;;;11.98;;
54919;SDS011;63804;53.120;8.764;2023-03-01T14:44:53;20.85;;;11.95;;
54919;SDS011;63804;53.120;8.764;2023-03-01T14:47:27;21.63;;;13.30;;
54919;SDS011;63804;53.120;8.764;2023-03-01T14:50:02;19.70;;;12.40;;
54919;SDS011;63804;53.120;8.764;2023-03-01T14:52:32;18.42;;;12.20;;
54919;SDS011;63804;53.120;8.764;2023-03-01T14:55:02;18.27;;;11.50;;
54919;SDS011;63804;53.120;8.764;2023-03-01T14:57:30;20.50;;;12.00;;
54919;SDS011;63804;53.120;8.764;2023-03-01T15:00:00;17.92;;;11.70;;
54919;SDS011;63804;53.120;8.764;2023-03-01T15:02:31;21.30;;;12.23;;
54919;SDS011;63804;53.120;8.764;2023-03-01T15:04:58;20.25;;;12.50;;
54919;SDS011;63804;53.120;8.764;2023-03-01T15:07:31;19.00;;;12.40;;
54919;SDS011;63804;53.120;8.764;2023-03-01T15:10:01;19.63;;;12.67;;
54919;SDS011;63804;53.120;8.764;2023-03-01T15:14:53;21.40;;;12.20;;
54919;SDS011;63804;53.120;8.764;2023-03-01T15:17:21;22.60;;;14.30;;
54919;SDS011;63804;53.120;8.764;2023-03-01T15:19:55;23.52;;;14.88;;
54919;SDS011;63804;53.120;8.764;2023-03-01T15:22:20;22.88;;;14.32;;
54919;SDS011;63804;53.120;8.764;2023-03-01T15:24:47;22.55;;;14.07;;
54919;SDS011;63804;53.120;8.764;2023-03-01T15:27:15;22.77;;;14.65;;
54919;SDS011;63804;53.120;8.764;2023-03-01T15:30:04;23.95;;;14.85;;
54919;SDS011;63804;53.120;8.764;2023-03-01T15:32:31;20.55;;;12.73;;
54919;SDS011;63804;53.120;8.764;2023-03-01T15:34:58;22.50;;;13.40;;
54919;SDS011;63804;53.120;8.764;2023-03-01T15:40:29;23.20;;;13.00;;
54919;SDS011;63804;53.120;8.764;2023-03-01T15:42:59;23.37;;;13.13;;
54919;SDS011;63804;53.120;8.764;2023-03-01T15:45:26;20.02;;;12.02;;
54919;SDS011;63804;53.120;8.764;2023-03-01T15:52:51;24.15;;;14.30;;
54919;SDS011;63804;53.120;8.764;2023-03-01T15:55:18;23.98;;;13.90;;
54919;SDS011;63804;53.120;8.764;2023-03-01T15:57:43;22.52;;;13.95;;
54919;SDS011;63804;53.120;8.764;2023-03-01T16:00:10;23.58;;;14.35;;
54919;SDS011;63804;53.120;8.764;2023-03-01T16:02:38;27.05;;;14.23;;
54919;SDS011;63804;53.120;8.764;2023-03-01T16:05:04;23.63;;;14.35;;
54919;SDS011;63804;53.120;8.764;2023-03-01T16:07:30;23.23;;;14.05;;
54919;SDS011;63804;53.120;8.764;2023-03-01T16:09:56;24.75;;;13.90;;
54919;SDS011;63804;53.120;8.764;2023-03-01T16:12:22;25.20;;;15.18;;
54919;SDS011;63804;53.120;8.764;2023-03-01T16:14:49;28.90;;;15.60;;
54919;SDS011;63804;53.120;8.764;2023-03-01T16:17:15;24.67;;;14.98;;
54919;SDS011;63804;53.120;8.764;2023-03-01T16:19:40;25.52;;;15.45;;
54919;SDS011;63804;53.120;8.764;2023-03-01T16:22:06;25.60;;;14.88;;
54919;SDS011;63804;53.120;8.764;2023-03-01T16:24:32;25.13;;;15.18;;
54919;SDS011;63804;53.120;8.764;2023-03-01T16:26:57;24.83;;;15.43;;
54919;SDS011;63804;53.120;8.764;2023-03-01T16:29:23;25.10;;;15.65;;